Hermansville, Michigan
Current Conditions -  °F | °C
As of 11:35 PM on Saturday 25 Oct 2014 (Local Time) from KESC Reporting Station
Clear Clear  
Wind Chill: 43°   Ceiling: Unl
Heat Index: 48°   Visibility: 10mi
Dew Point: 28°   Wind: 12mph
Humidity: 46%   Direction: 300°WNW
Pressure: 29.84"   Gusts: NA
Location:  45.71°N, 87.6°W
Report Text: KESC 260435Z AUTO 30010KT 10SM CLR 09/M02 A2984 RMK AO1
Loading
Personal Weather Stations






























Interactive Weather Map
Tropical Storm Tracking
New forecast layout! Learn more

10-Day Weather Forecast

Advertisements
Track Severe Weather on mobile